Terminal Aerodrome Forecast
Issued by NWS

Home | Current Version | Previous Version | Text Only | Print | Product List | Glossary On
Versions: 1 2 3 4 5 6 7 8 9 10 11 12 13 14 15 16
000
FTUS45 KVEF 220536
TAFBIH
TAF
KBIH 220536Z 2206/2306 36007KT P6SM VCSH SCT060 BKN100
     FM221100 VRB05KT P6SM VCSH BKN060 BKN100
     FM221800 14009KT P6SM VCSH BKN060 BKN100 PROB30 2219/2301
      VRB15G25KT -TSRA BKN050CB
     FM230200 VRB06KT P6SM VCSH BKN060 BKN100=

USA.gov is the U.S. government's official web portal to all federal, state and local government web resources and services.